IBE07SB EGLL-LEMD
Flight info
| Callsign | IBE07SB |
|---|---|
| Flight time | 1h 48m |
| Altitude | 31000 |
| Route | GASGU N866 SAM M195 IBNID/N0453F330 M195 MARUK N621 LELNA DCT NOVAN DCT DELOG N864 NONTU |
| Aircraft | A346/H-SDE2E3FGHIJ3J4J5M1RWXY/LB1D1 |
Departure
| Time | 2026-05-07 17:09 |
|---|---|
| Airport | London Heathrow Airport (EGLL) |
Arrival
| Time | 2026-05-07 18:58 |
|---|---|
| Airport | Adolfo Suárez Madrid–Barajas Airport (LEMD) |
| Time | Latitude | Longitude | Altitude | Speed | Heading |
|---|---|---|---|---|---|
| 2026-05-07 16:06 | 51.46983 | -0.47472 | 93 ft | 0 kts | 269° |
| 2026-05-07 16:55 | 51.46983 | -0.47473 | 93 ft | 0 kts | 269° |
| 2026-05-07 16:56 | 51.46983 | -0.47425 | 94 ft | 0 kts | 269° |
| 2026-05-07 16:57 | 51.46983 | -0.47383 | 94 ft | 0 kts | 269° |
| 2026-05-07 16:57 | 51.46983 | -0.47340 | 94 ft | 0 kts | 269° |
| 2026-05-07 16:57 | 51.46984 | -0.47325 | 94 ft | 0 kts | 269° |
| 2026-05-07 17:00 | 51.46984 | -0.47326 | 93 ft | 0 kts | 269° |
| 2026-05-07 17:01 | 51.46983 | -0.47331 | 93 ft | 1 kts | 257° |
| 2026-05-07 17:01 | 51.46982 | -0.47335 | 93 ft | 0 kts | 242° |
| 2026-05-07 17:02 | 51.46965 | -0.47350 | 97 ft | 6 kts | 194° |
| 2026-05-07 17:02 | 51.46910 | -0.47355 | 96 ft | 10 kts | 180° |
| 2026-05-07 17:02 | 51.46833 | -0.47352 | 93 ft | 12 kts | 179° |
| 2026-05-07 17:02 | 51.46746 | -0.47350 | 93 ft | 12 kts | 180° |
| 2026-05-07 17:03 | 51.46662 | -0.47416 | 92 ft | 17 kts | 242° |
| 2026-05-07 17:03 | 51.46655 | -0.47621 | 92 ft | 18 kts | 270° |
| 2026-05-07 17:03 | 51.46655 | -0.47833 | 93 ft | 19 kts | 269° |
| 2026-05-07 17:03 | 51.46653 | -0.47994 | 92 ft | 12 kts | 270° |
| 2026-05-07 17:04 | 51.46653 | -0.48067 | 94 ft | 0 kts | 270° |
| 2026-05-07 17:04 | 51.46653 | -0.48068 | 94 ft | 0 kts | 270° |
| 2026-05-07 17:04 | 51.46653 | -0.48069 | 94 ft | 0 kts | 270° |
| 2026-05-07 17:05 | 51.46653 | -0.48087 | 94 ft | 3 kts | 270° |
| 2026-05-07 17:05 | 51.46654 | -0.48136 | 95 ft | 6 kts | 270° |
| 2026-05-07 17:05 | 51.46653 | -0.48220 | 95 ft | 10 kts | 270° |
| 2026-05-07 17:05 | 51.46653 | -0.48353 | 96 ft | 13 kts | 270° |
| 2026-05-07 17:06 | 51.46652 | -0.48493 | 97 ft | 9 kts | 268° |
| 2026-05-07 17:06 | 51.46652 | -0.48561 | 96 ft | 6 kts | 271° |
| 2026-05-07 17:06 | 51.46652 | -0.48645 | 95 ft | 9 kts | 268° |
| 2026-05-07 17:06 | 51.46628 | -0.48733 | 98 ft | 11 kts | 219° |
| 2026-05-07 17:07 | 51.46544 | -0.48774 | 96 ft | 15 kts | 171° |
| 2026-05-07 17:07 | 51.46524 | -0.48764 | 96 ft | 1 kts | 156° |
| 2026-05-07 17:07 | 51.46491 | -0.48726 | 97 ft | 9 kts | 129° |
| 2026-05-07 17:07 | 51.46479 | -0.48652 | 97 ft | 0 kts | 91° |
| 2026-05-07 17:08 | 51.46478 | -0.48558 | 94 ft | 35 kts | 91° |
| 2026-05-07 17:08 | 51.46478 | -0.47752 | 91 ft | 107 kts | 89° |
| 2026-05-07 17:09 | 51.46489 | -0.46213 | 98 ft | 165 kts | 90° |
| 2026-05-07 17:09 | 51.46501 | -0.44274 | 567 ft | 180 kts | 92° |
| 2026-05-07 17:09 | 51.46513 | -0.42244 | 1353 ft | 181 kts | 96° |
| 2026-05-07 17:09 | 51.46177 | -0.40314 | 2053 ft | 182 kts | 121° |
| 2026-05-07 17:10 | 51.45378 | -0.38660 | 2544 ft | 195 kts | 132° |
| 2026-05-07 17:10 | 51.44524 | -0.36835 | 3003 ft | 212 kts | 126° |
| 2026-05-07 17:10 | 51.43609 | -0.34832 | 3454 ft | 233 kts | 136° |
| 2026-05-07 17:10 | 51.42131 | -0.33630 | 3929 ft | 251 kts | 173° |
| 2026-05-07 17:11 | 51.40308 | -0.33525 | 4679 ft | 262 kts | 179° |
| 2026-05-07 17:11 | 51.38478 | -0.33700 | 5421 ft | 265 kts | 194° |
| 2026-05-07 17:11 | 51.36832 | -0.35050 | 5881 ft | 267 kts | 219° |
| 2026-05-07 17:11 | 51.35457 | -0.37080 | 6003 ft | 268 kts | 225° |
| 2026-05-07 17:12 | 51.34584 | -0.38488 | 6005 ft | 268 kts | 225° |
| 2026-05-07 17:12 | 51.33252 | -0.40591 | 6007 ft | 269 kts | 224° |
| 2026-05-07 17:12 | 51.31832 | -0.42582 | 6005 ft | 272 kts | 217° |
| 2026-05-07 17:12 | 51.30386 | -0.44536 | 5989 ft | 272 kts | 231° |
| 2026-05-07 17:13 | 51.29563 | -0.47236 | 6004 ft | 273 kts | 256° |
| 2026-05-07 17:13 | 51.29194 | -0.50240 | 6101 ft | 280 kts | 260° |
| 2026-05-07 17:13 | 51.28796 | -0.53399 | 6908 ft | 287 kts | 257° |
| 2026-05-07 17:13 | 51.28344 | -0.56414 | 8232 ft | 278 kts | 254° |
| 2026-05-07 17:14 | 51.27829 | -0.59369 | 9505 ft | 274 kts | 252° |
| 2026-05-07 17:14 | 51.27268 | -0.62312 | 10448 ft | 279 kts | 251° |
| 2026-05-07 17:14 | 51.26673 | -0.65358 | 11098 ft | 294 kts | 251° |
| 2026-05-07 17:14 | 51.26050 | -0.68536 | 11717 ft | 310 kts | 251° |
| 2026-05-07 17:15 | 51.25385 | -0.71926 | 12254 ft | 329 kts | 251° |
| 2026-05-07 17:15 | 51.24682 | -0.75518 | 12782 ft | 348 kts | 251° |
| 2026-05-07 17:15 | 51.23942 | -0.79297 | 13401 ft | 362 kts | 251° |
| 2026-05-07 17:15 | 51.23182 | -0.83178 | 14267 ft | 367 kts | 251° |
| 2026-05-07 17:16 | 51.22411 | -0.87098 | 15173 ft | 370 kts | 251° |
| 2026-05-07 17:16 | 51.21632 | -0.91047 | 16081 ft | 373 kts | 250° |
| 2026-05-07 17:16 | 51.20600 | -0.94811 | 16948 ft | 376 kts | 240° |
| 2026-05-07 17:16 | 51.19110 | -0.98261 | 17867 ft | 379 kts | 230° |
| 2026-05-07 17:17 | 51.17272 | -1.01308 | 18695 ft | 383 kts | 225° |
| 2026-05-07 17:17 | 51.15337 | -1.04279 | 19438 ft | 387 kts | 224° |
| 2026-05-07 17:17 | 51.13374 | -1.07262 | 20160 ft | 391 kts | 224° |
| 2026-05-07 17:17 | 51.11394 | -1.10276 | 20907 ft | 395 kts | 224° |
| 2026-05-07 17:18 | 51.09395 | -1.13328 | 21634 ft | 399 kts | 224° |
| 2026-05-07 17:18 | 51.07379 | -1.16408 | 22371 ft | 403 kts | 224° |
| 2026-05-07 17:18 | 51.05370 | -1.19480 | 23095 ft | 408 kts | 224° |
| 2026-05-07 17:18 | 51.03307 | -1.22633 | 23781 ft | 412 kts | 224° |
| 2026-05-07 17:19 | 51.01223 | -1.25813 | 24378 ft | 416 kts | 224° |
| 2026-05-07 17:19 | 50.99131 | -1.29000 | 24993 ft | 419 kts | 224° |
| 2026-05-07 17:19 | 50.96954 | -1.32142 | 25608 ft | 423 kts | 220° |
| 2026-05-07 17:19 | 50.94468 | -1.34600 | 26167 ft | 428 kts | 208° |
| 2026-05-07 17:20 | 50.91789 | -1.36726 | 26814 ft | 431 kts | 207° |
| 2026-05-07 17:20 | 50.89082 | -1.38832 | 27414 ft | 434 kts | 207° |
| 2026-05-07 17:20 | 50.86383 | -1.40948 | 28217 ft | 432 kts | 207° |
| 2026-05-07 17:20 | 50.83702 | -1.43075 | 29132 ft | 428 kts | 207° |
| 2026-05-07 17:21 | 50.81049 | -1.45189 | 29990 ft | 425 kts | 208° |
| 2026-05-07 17:21 | 50.78437 | -1.47277 | 30586 ft | 427 kts | 208° |
| 2026-05-07 17:21 | 50.75775 | -1.49411 | 30968 ft | 430 kts | 208° |
| 2026-05-07 17:21 | 50.73099 | -1.51558 | 31044 ft | 432 kts | 208° |
| 2026-05-07 17:22 | 50.67685 | -1.55902 | 31230 ft | 441 kts | 208° |
| 2026-05-07 17:22 | 50.64958 | -1.58088 | 31801 ft | 441 kts | 208° |
| 2026-05-07 17:22 | 50.62230 | -1.60270 | 32513 ft | 437 kts | 208° |
| 2026-05-07 17:23 | 50.59517 | -1.62439 | 32939 ft | 435 kts | 208° |
| 2026-05-07 17:23 | 50.56796 | -1.64611 | 33037 ft | 434 kts | 208° |
| 2026-05-07 17:23 | 50.51410 | -1.68903 | 33042 ft | 433 kts | 208° |
| 2026-05-07 17:24 | 50.46010 | -1.73197 | 33040 ft | 433 kts | 208° |
| 2026-05-07 17:24 | 50.40655 | -1.77443 | 33033 ft | 433 kts | 208° |
| 2026-05-07 17:25 | 50.35243 | -1.81726 | 33038 ft | 434 kts | 207° |
| 2026-05-07 17:25 | 50.29846 | -1.85984 | 33039 ft | 435 kts | 207° |
| 2026-05-07 17:26 | 50.27079 | -1.88167 | 33042 ft | 448 kts | 207° |
| 2026-05-07 17:26 | 50.24287 | -1.90364 | 33042 ft | 460 kts | 207° |
| 2026-05-07 17:26 | 50.18515 | -1.94893 | 33036 ft | 466 kts | 207° |
| 2026-05-07 17:27 | 50.12690 | -1.99454 | 33033 ft | 466 kts | 207° |
| 2026-05-07 17:27 | 50.06880 | -2.03988 | 33032 ft | 466 kts | 207° |
| 2026-05-07 17:28 | 50.01077 | -2.08431 | 33028 ft | 467 kts | 205° |
| 2026-05-07 17:28 | 49.95017 | -2.12098 | 33017 ft | 467 kts | 199° |
| 2026-05-07 17:29 | 49.88810 | -2.15011 | 33033 ft | 468 kts | 198° |
| 2026-05-07 17:29 | 49.82566 | -2.17938 | 33034 ft | 468 kts | 198° |
| 2026-05-07 17:30 | 49.76327 | -2.20852 | 33032 ft | 468 kts | 198° |
| 2026-05-07 17:30 | 49.70072 | -2.23759 | 33034 ft | 468 kts | 198° |
| 2026-05-07 17:31 | 49.63856 | -2.26639 | 33037 ft | 467 kts | 197° |
| 2026-05-07 17:31 | 49.57633 | -2.29511 | 33031 ft | 466 kts | 197° |
| 2026-05-07 17:32 | 49.51445 | -2.32359 | 33011 ft | 466 kts | 197° |
| 2026-05-07 17:32 | 49.45206 | -2.35224 | 33004 ft | 467 kts | 197° |
| 2026-05-07 17:33 | 49.39003 | -2.38064 | 33020 ft | 467 kts | 197° |
| 2026-05-07 17:33 | 49.32776 | -2.40908 | 33006 ft | 467 kts | 197° |
| 2026-05-07 17:34 | 49.26530 | -2.43752 | 32999 ft | 467 kts | 197° |
| 2026-05-07 17:34 | 49.20324 | -2.46571 | 33017 ft | 467 kts | 197° |
| 2026-05-07 17:35 | 49.14067 | -2.49406 | 33000 ft | 467 kts | 197° |
| 2026-05-07 17:35 | 49.07864 | -2.52210 | 32997 ft | 467 kts | 197° |
| 2026-05-07 17:36 | 49.01625 | -2.55020 | 33002 ft | 465 kts | 197° |
| 2026-05-07 17:36 | 48.95404 | -2.57818 | 33000 ft | 465 kts | 197° |
| 2026-05-07 17:37 | 48.89233 | -2.60588 | 32996 ft | 465 kts | 197° |
| 2026-05-07 17:37 | 48.83024 | -2.63367 | 32994 ft | 464 kts | 197° |
| 2026-05-07 17:38 | 48.76824 | -2.66133 | 32985 ft | 463 kts | 197° |
| 2026-05-07 17:38 | 48.70669 | -2.68872 | 33002 ft | 463 kts | 197° |
| 2026-05-07 17:39 | 48.64481 | -2.71618 | 32985 ft | 463 kts | 197° |
| 2026-05-07 17:39 | 48.58320 | -2.74346 | 32986 ft | 463 kts | 197° |
| 2026-05-07 17:40 | 48.52099 | -2.77092 | 32984 ft | 463 kts | 197° |
| 2026-05-07 17:40 | 48.45898 | -2.79823 | 32982 ft | 463 kts | 197° |
| 2026-05-07 17:41 | 48.39713 | -2.82539 | 32982 ft | 464 kts | 197° |
| 2026-05-07 17:41 | 48.33504 | -2.85261 | 32987 ft | 464 kts | 197° |
| 2026-05-07 17:42 | 48.27288 | -2.87977 | 32979 ft | 464 kts | 197° |
| 2026-05-07 17:42 | 48.21078 | -2.90684 | 32985 ft | 464 kts | 197° |
| 2026-05-07 17:43 | 48.14896 | -2.93373 | 32986 ft | 465 kts | 197° |
| 2026-05-07 17:43 | 48.08668 | -2.96074 | 32985 ft | 465 kts | 197° |
| 2026-05-07 17:44 | 48.02442 | -2.98768 | 32994 ft | 465 kts | 197° |
| 2026-05-07 17:44 | 47.96270 | -3.01432 | 32984 ft | 465 kts | 197° |
| 2026-05-07 17:45 | 47.90026 | -3.04120 | 32978 ft | 466 kts | 197° |
| 2026-05-07 17:45 | 47.83804 | -3.06792 | 32990 ft | 466 kts | 197° |
| 2026-05-07 17:46 | 47.77561 | -3.09466 | 32984 ft | 466 kts | 197° |
| 2026-05-07 17:46 | 47.71307 | -3.12138 | 32985 ft | 467 kts | 197° |
| 2026-05-07 17:47 | 47.65045 | -3.14808 | 32985 ft | 467 kts | 197° |
| 2026-05-07 17:47 | 47.58827 | -3.17452 | 32992 ft | 467 kts | 197° |
| 2026-05-07 17:48 | 47.52552 | -3.20112 | 32987 ft | 468 kts | 197° |
| 2026-05-07 17:48 | 47.46319 | -3.22749 | 32988 ft | 468 kts | 197° |
| 2026-05-07 17:49 | 47.40054 | -3.25395 | 32991 ft | 468 kts | 197° |
| 2026-05-07 17:49 | 47.33769 | -3.28041 | 32989 ft | 468 kts | 197° |
| 2026-05-07 17:50 | 47.27483 | -3.30669 | 32989 ft | 469 kts | 197° |
| 2026-05-07 17:50 | 47.21220 | -3.33286 | 32992 ft | 472 kts | 197° |
| 2026-05-07 17:51 | 47.14890 | -3.35931 | 32990 ft | 472 kts | 197° |
| 2026-05-07 17:51 | 47.08594 | -3.38554 | 32993 ft | 473 kts | 197° |
| 2026-05-07 17:52 | 47.02245 | -3.41196 | 32994 ft | 473 kts | 197° |
| 2026-05-07 17:52 | 46.95908 | -3.43826 | 32992 ft | 473 kts | 197° |
| 2026-05-07 17:53 | 46.89604 | -3.46435 | 32977 ft | 473 kts | 197° |
| 2026-05-07 17:53 | 46.83258 | -3.49054 | 32986 ft | 474 kts | 197° |
| 2026-05-07 17:54 | 46.76905 | -3.51670 | 32990 ft | 474 kts | 197° |
| 2026-05-07 17:54 | 46.70593 | -3.54264 | 32990 ft | 474 kts | 197° |
| 2026-05-07 17:55 | 46.64223 | -3.56875 | 32991 ft | 474 kts | 197° |
| 2026-05-07 17:55 | 46.57897 | -3.59462 | 32982 ft | 474 kts | 197° |
| 2026-05-07 17:56 | 46.51573 | -3.62042 | 32984 ft | 474 kts | 197° |
| 2026-05-07 17:56 | 46.45179 | -3.64641 | 32978 ft | 478 kts | 197° |
| 2026-05-07 17:57 | 46.39835 | -3.66815 | 32977 ft | 479 kts | 197° |
| 2026-05-07 17:57 | 46.32290 | -3.69525 | 32979 ft | 480 kts | 193° |
| 2026-05-07 17:58 | 46.25655 | -3.70869 | 32973 ft | 483 kts | 187° |
| 2026-05-07 17:58 | 46.18982 | -3.71857 | 32976 ft | 483 kts | 188° |
| 2026-05-07 17:59 | 46.12299 | -3.72863 | 32978 ft | 483 kts | 188° |
| 2026-05-07 17:59 | 46.05576 | -3.73868 | 32972 ft | 480 kts | 188° |
| 2026-05-07 18:00 | 46.02298 | -3.74353 | 32960 ft | 464 kts | 188° |
| 2026-05-07 18:00 | 45.99138 | -3.74818 | 32963 ft | 450 kts | 188° |
| 2026-05-07 18:00 | 45.92980 | -3.75732 | 32973 ft | 446 kts | 188° |
| 2026-05-07 18:01 | 45.86786 | -3.76650 | 32966 ft | 446 kts | 188° |
| 2026-05-07 18:01 | 45.80607 | -3.77562 | 32970 ft | 446 kts | 188° |
| 2026-05-07 18:02 | 45.71370 | -3.78919 | 32967 ft | 446 kts | 188° |
| 2026-05-07 18:03 | 45.66229 | -3.79671 | 32967 ft | 446 kts | 188° |
| 2026-05-07 18:03 | 45.60043 | -3.80576 | 32963 ft | 446 kts | 188° |
| 2026-05-07 18:04 | 45.53891 | -3.81475 | 32958 ft | 446 kts | 188° |
| 2026-05-07 18:04 | 45.47712 | -3.82373 | 32954 ft | 447 kts | 188° |
| 2026-05-07 18:05 | 45.41516 | -3.83274 | 32949 ft | 447 kts | 188° |
| 2026-05-07 18:05 | 45.35306 | -3.84174 | 32952 ft | 447 kts | 188° |
| 2026-05-07 18:06 | 45.29138 | -3.85066 | 32950 ft | 447 kts | 188° |
| 2026-05-07 18:06 | 45.22939 | -3.85960 | 32947 ft | 447 kts | 188° |
| 2026-05-07 18:07 | 45.16735 | -3.86852 | 32946 ft | 453 kts | 188° |
| 2026-05-07 18:07 | 45.10459 | -3.87754 | 32948 ft | 452 kts | 188° |
| 2026-05-07 18:08 | 45.04176 | -3.88655 | 32941 ft | 452 kts | 188° |
| 2026-05-07 18:08 | 44.97953 | -3.89546 | 32937 ft | 452 kts | 188° |
| 2026-05-07 18:09 | 44.91671 | -3.90442 | 32927 ft | 452 kts | 188° |
| 2026-05-07 18:09 | 44.85432 | -3.91330 | 32932 ft | 452 kts | 188° |
| 2026-05-07 18:10 | 44.79145 | -3.92224 | 32936 ft | 452 kts | 189° |
| 2026-05-07 18:10 | 44.72910 | -3.93109 | 32939 ft | 452 kts | 188° |
| 2026-05-07 18:11 | 44.66639 | -3.93997 | 32929 ft | 452 kts | 188° |
| 2026-05-07 18:11 | 44.60358 | -3.94884 | 32927 ft | 453 kts | 188° |
| 2026-05-07 18:12 | 44.54127 | -3.95762 | 32907 ft | 452 kts | 189° |
| 2026-05-07 18:12 | 44.47879 | -3.96639 | 32921 ft | 452 kts | 189° |
| 2026-05-07 18:13 | 44.41595 | -3.97524 | 32921 ft | 453 kts | 189° |
| 2026-05-07 18:13 | 44.35318 | -3.98331 | 32921 ft | 454 kts | 186° |
| 2026-05-07 18:14 | 44.28985 | -3.98359 | 32911 ft | 457 kts | 180° |
| 2026-05-07 18:14 | 44.22621 | -3.97734 | 32913 ft | 456 kts | 179° |
| 2026-05-07 18:15 | 44.16328 | -3.97112 | 32913 ft | 455 kts | 179° |
| 2026-05-07 18:15 | 44.09993 | -3.96490 | 32906 ft | 456 kts | 179° |
| 2026-05-07 18:16 | 44.03651 | -3.95875 | 32910 ft | 456 kts | 180° |
| 2026-05-07 18:16 | 43.97346 | -3.95264 | 32905 ft | 456 kts | 180° |
| 2026-05-07 18:17 | 43.90992 | -3.94646 | 32897 ft | 458 kts | 180° |
| 2026-05-07 18:17 | 43.84667 | -3.94036 | 32903 ft | 458 kts | 180° |
| 2026-05-07 18:18 | 43.78297 | -3.93422 | 32901 ft | 457 kts | 180° |
| 2026-05-07 18:18 | 43.71970 | -3.92810 | 32897 ft | 458 kts | 180° |
| 2026-05-07 18:19 | 43.65604 | -3.92196 | 32900 ft | 458 kts | 180° |
| 2026-05-07 18:19 | 43.59229 | -3.91585 | 32899 ft | 458 kts | 180° |
| 2026-05-07 18:20 | 43.52851 | -3.90976 | 32889 ft | 460 kts | 180° |
| 2026-05-07 18:20 | 43.46502 | -3.90505 | 32896 ft | 458 kts | 184° |
| 2026-05-07 18:21 | 43.40155 | -3.90911 | 32900 ft | 454 kts | 190° |
| 2026-05-07 18:21 | 43.33884 | -3.91859 | 32891 ft | 456 kts | 191° |
| 2026-05-07 18:22 | 43.27554 | -3.92806 | 32899 ft | 457 kts | 190° |
| 2026-05-07 18:22 | 43.21232 | -3.93743 | 32903 ft | 457 kts | 190° |
| 2026-05-07 18:23 | 43.14913 | -3.94676 | 32895 ft | 457 kts | 191° |
| 2026-05-07 18:23 | 43.08622 | -3.95601 | 32919 ft | 456 kts | 191° |
| 2026-05-07 18:24 | 43.02307 | -3.96533 | 32928 ft | 456 kts | 191° |
| 2026-05-07 18:24 | 42.96001 | -3.97459 | 32928 ft | 456 kts | 191° |
| 2026-05-07 18:25 | 42.89727 | -3.98371 | 32930 ft | 456 kts | 191° |
| 2026-05-07 18:25 | 42.83417 | -3.99292 | 32938 ft | 456 kts | 191° |
| 2026-05-07 18:26 | 42.77132 | -4.00208 | 32936 ft | 456 kts | 191° |
| 2026-05-07 18:26 | 42.70812 | -4.01127 | 32933 ft | 455 kts | 191° |
| 2026-05-07 18:27 | 42.64517 | -4.02042 | 32943 ft | 455 kts | 191° |
| 2026-05-07 18:27 | 42.58199 | -4.02958 | 32743 ft | 456 kts | 191° |
| 2026-05-07 18:27 | 42.55049 | -4.03413 | 32470 ft | 453 kts | 191° |
| 2026-05-07 18:28 | 42.51924 | -4.03857 | 32183 ft | 451 kts | 191° |
| 2026-05-07 18:28 | 42.48794 | -4.04305 | 31921 ft | 449 kts | 191° |
| 2026-05-07 18:28 | 42.45671 | -4.04757 | 31655 ft | 448 kts | 191° |
| 2026-05-07 18:28 | 42.42544 | -4.05211 | 31398 ft | 448 kts | 191° |
| 2026-05-07 18:29 | 42.39473 | -4.05655 | 31156 ft | 449 kts | 191° |
| 2026-05-07 18:29 | 42.36338 | -4.06108 | 30902 ft | 449 kts | 191° |
| 2026-05-07 18:29 | 42.33230 | -4.06555 | 30639 ft | 450 kts | 191° |
| 2026-05-07 18:29 | 42.30112 | -4.07000 | 30391 ft | 451 kts | 191° |
| 2026-05-07 18:30 | 42.26993 | -4.07448 | 30151 ft | 452 kts | 190° |
| 2026-05-07 18:30 | 42.23851 | -4.07898 | 29891 ft | 453 kts | 190° |
| 2026-05-07 18:30 | 42.20717 | -4.08347 | 29602 ft | 453 kts | 190° |
| 2026-05-07 18:30 | 42.17558 | -4.08798 | 29316 ft | 453 kts | 190° |
| 2026-05-07 18:31 | 42.14420 | -4.09246 | 29036 ft | 453 kts | 190° |
| 2026-05-07 18:31 | 42.11286 | -4.09692 | 28737 ft | 453 kts | 190° |
| 2026-05-07 18:31 | 42.08136 | -4.10137 | 28462 ft | 455 kts | 190° |
| 2026-05-07 18:31 | 42.04978 | -4.10588 | 28188 ft | 455 kts | 190° |
| 2026-05-07 18:32 | 42.01848 | -4.11028 | 27914 ft | 456 kts | 189° |
| 2026-05-07 18:32 | 41.98685 | -4.11408 | 27642 ft | 456 kts | 189° |
| 2026-05-07 18:32 | 41.95523 | -4.11761 | 27383 ft | 456 kts | 188° |
| 2026-05-07 18:32 | 41.92333 | -4.12114 | 27131 ft | 456 kts | 188° |
| 2026-05-07 18:33 | 41.89157 | -4.12466 | 26846 ft | 456 kts | 188° |
| 2026-05-07 18:33 | 41.85970 | -4.12823 | 26580 ft | 456 kts | 188° |
| 2026-05-07 18:33 | 41.83027 | -4.13155 | 26342 ft | 454 kts | 188° |
| 2026-05-07 18:33 | 41.79922 | -4.13507 | 26091 ft | 451 kts | 188° |
| 2026-05-07 18:34 | 41.76753 | -4.13867 | 25825 ft | 449 kts | 188° |
| 2026-05-07 18:34 | 41.73689 | -4.14214 | 25590 ft | 447 kts | 188° |
| 2026-05-07 18:34 | 41.70569 | -4.14568 | 25349 ft | 444 kts | 188° |
| 2026-05-07 18:34 | 41.67688 | -4.14893 | 25103 ft | 443 kts | 188° |
| 2026-05-07 18:35 | 41.64624 | -4.15240 | 24851 ft | 441 kts | 188° |
| 2026-05-07 18:35 | 41.61573 | -4.15587 | 24619 ft | 438 kts | 188° |
| 2026-05-07 18:35 | 41.58512 | -4.15934 | 24377 ft | 436 kts | 187° |
| 2026-05-07 18:35 | 41.55465 | -4.16279 | 24140 ft | 434 kts | 187° |
| 2026-05-07 18:36 | 41.52471 | -4.16617 | 23905 ft | 431 kts | 187° |
| 2026-05-07 18:36 | 41.49538 | -4.16948 | 23678 ft | 429 kts | 187° |
| 2026-05-07 18:36 | 41.46621 | -4.17275 | 23435 ft | 427 kts | 187° |
| 2026-05-07 18:36 | 41.43628 | -4.17610 | 23153 ft | 425 kts | 187° |
| 2026-05-07 18:37 | 41.40673 | -4.17941 | 22876 ft | 424 kts | 187° |
| 2026-05-07 18:37 | 41.37736 | -4.18271 | 22599 ft | 422 kts | 187° |
| 2026-05-07 18:37 | 41.34781 | -4.18603 | 22319 ft | 420 kts | 187° |
| 2026-05-07 18:37 | 41.31899 | -4.18927 | 22057 ft | 418 kts | 187° |
| 2026-05-07 18:38 | 41.28968 | -4.19255 | 21799 ft | 416 kts | 187° |
| 2026-05-07 18:38 | 41.26074 | -4.19547 | 21517 ft | 415 kts | 185° |
| 2026-05-07 18:38 | 41.23201 | -4.19686 | 21250 ft | 415 kts | 181° |
| 2026-05-07 18:38 | 41.20360 | -4.19010 | 20982 ft | 417 kts | 164° |
| 2026-05-07 18:39 | 41.17597 | -4.17680 | 20762 ft | 417 kts | 160° |
| 2026-05-07 18:39 | 41.14874 | -4.16260 | 20506 ft | 415 kts | 160° |
| 2026-05-07 18:39 | 41.12118 | -4.14851 | 20235 ft | 413 kts | 161° |
| 2026-05-07 18:39 | 41.09422 | -4.13519 | 20019 ft | 411 kts | 161° |
| 2026-05-07 18:40 | 41.06741 | -4.12231 | 19765 ft | 409 kts | 162° |
| 2026-05-07 18:40 | 41.04062 | -4.10965 | 19500 ft | 408 kts | 162° |
| 2026-05-07 18:40 | 41.01270 | -4.09667 | 19258 ft | 407 kts | 162° |
| 2026-05-07 18:40 | 40.98606 | -4.08437 | 19018 ft | 405 kts | 162° |
| 2026-05-07 18:41 | 40.95866 | -4.07177 | 18768 ft | 403 kts | 162° |
| 2026-05-07 18:41 | 40.93228 | -4.05966 | 18522 ft | 401 kts | 162° |
| 2026-05-07 18:41 | 40.90593 | -4.04756 | 18257 ft | 399 kts | 162° |
| 2026-05-07 18:41 | 40.87979 | -4.03556 | 17859 ft | 396 kts | 163° |
| 2026-05-07 18:42 | 40.85363 | -4.02362 | 17434 ft | 393 kts | 162° |
| 2026-05-07 18:42 | 40.82819 | -4.01195 | 17037 ft | 390 kts | 163° |
| 2026-05-07 18:42 | 40.80255 | -4.00026 | 16620 ft | 387 kts | 163° |
| 2026-05-07 18:42 | 40.77713 | -3.98868 | 16208 ft | 384 kts | 163° |
| 2026-05-07 18:43 | 40.75194 | -3.97724 | 15801 ft | 381 kts | 162° |
| 2026-05-07 18:43 | 40.72694 | -3.96577 | 15398 ft | 378 kts | 163° |
| 2026-05-07 18:43 | 40.70206 | -3.95441 | 14973 ft | 375 kts | 162° |
| 2026-05-07 18:43 | 40.67775 | -3.94335 | 14608 ft | 372 kts | 162° |
| 2026-05-07 18:44 | 40.65320 | -3.93218 | 14206 ft | 369 kts | 162° |
| 2026-05-07 18:44 | 40.62901 | -3.92113 | 13815 ft | 366 kts | 162° |
| 2026-05-07 18:44 | 40.60488 | -3.91016 | 13371 ft | 364 kts | 163° |
| 2026-05-07 18:44 | 40.58105 | -3.89938 | 12936 ft | 360 kts | 162° |
| 2026-05-07 18:45 | 40.55772 | -3.88874 | 12534 ft | 356 kts | 163° |
| 2026-05-07 18:45 | 40.53443 | -3.87816 | 12103 ft | 353 kts | 163° |
| 2026-05-07 18:45 | 40.51123 | -3.86770 | 11685 ft | 350 kts | 163° |
| 2026-05-07 18:45 | 40.48828 | -3.85732 | 11267 ft | 347 kts | 162° |
| 2026-05-07 18:46 | 40.46556 | -3.84707 | 10874 ft | 344 kts | 162° |
| 2026-05-07 18:46 | 40.44307 | -3.83683 | 10593 ft | 336 kts | 163° |
| 2026-05-07 18:46 | 40.42154 | -3.82706 | 10490 ft | 322 kts | 160° |
| 2026-05-07 18:46 | 40.40299 | -3.81237 | 10232 ft | 314 kts | 136° |
| 2026-05-07 18:47 | 40.38901 | -3.79118 | 10159 ft | 298 kts | 131° |
| 2026-05-07 18:47 | 40.37616 | -3.77027 | 9927 ft | 289 kts | 131° |
| 2026-05-07 18:47 | 40.36337 | -3.74990 | 9522 ft | 288 kts | 132° |
| 2026-05-07 18:47 | 40.35043 | -3.72985 | 9120 ft | 286 kts | 133° |
| 2026-05-07 18:48 | 40.33730 | -3.70990 | 8733 ft | 285 kts | 133° |
| 2026-05-07 18:48 | 40.32432 | -3.69047 | 8355 ft | 283 kts | 133° |
| 2026-05-07 18:48 | 40.31155 | -3.67138 | 7966 ft | 281 kts | 134° |
| 2026-05-07 18:48 | 40.29860 | -3.65213 | 7589 ft | 280 kts | 133° |
| 2026-05-07 18:49 | 40.28571 | -3.63309 | 7217 ft | 279 kts | 133° |
| 2026-05-07 18:49 | 40.27292 | -3.61408 | 6848 ft | 278 kts | 133° |
| 2026-05-07 18:49 | 40.26016 | -3.59512 | 6473 ft | 276 kts | 134° |
| 2026-05-07 18:49 | 40.24743 | -3.57633 | 6108 ft | 274 kts | 133° |
| 2026-05-07 18:50 | 40.23481 | -3.55798 | 5880 ft | 266 kts | 133° |
| 2026-05-07 18:50 | 40.22280 | -3.54008 | 5670 ft | 256 kts | 133° |
| 2026-05-07 18:50 | 40.21123 | -3.52285 | 5486 ft | 247 kts | 132° |
| 2026-05-07 18:50 | 40.20379 | -3.51176 | 5320 ft | 243 kts | 132° |
| 2026-05-07 18:51 | 40.19265 | -3.49519 | 5061 ft | 242 kts | 132° |
| 2026-05-07 18:51 | 40.18165 | -3.47858 | 4826 ft | 240 kts | 128° |
| 2026-05-07 18:51 | 40.17554 | -3.45871 | 4514 ft | 240 kts | 91° |
| 2026-05-07 18:51 | 40.18039 | -3.43815 | 4268 ft | 245 kts | 53° |
| 2026-05-07 18:52 | 40.19339 | -3.42346 | 4055 ft | 247 kts | 36° |
| 2026-05-07 18:52 | 40.20782 | -3.41114 | 4015 ft | 247 kts | 31° |
| 2026-05-07 18:52 | 40.22321 | -3.40080 | 4047 ft | 247 kts | 27° |
| 2026-05-07 18:52 | 40.23817 | -3.39132 | 4009 ft | 235 kts | 28° |
| 2026-05-07 18:53 | 40.25266 | -3.38281 | 3992 ft | 223 kts | 13° |
| 2026-05-07 18:53 | 40.26796 | -3.38335 | 4006 ft | 220 kts | 352° |
| 2026-05-07 18:53 | 40.28343 | -3.38670 | 4032 ft | 221 kts | 352° |
| 2026-05-07 18:53 | 40.29833 | -3.39171 | 4020 ft | 221 kts | 338° |
| 2026-05-07 18:54 | 40.31205 | -3.40101 | 4017 ft | 221 kts | 327° |
| 2026-05-07 18:54 | 40.32466 | -3.41256 | 4004 ft | 221 kts | 323° |
| 2026-05-07 18:54 | 40.33676 | -3.42474 | 4012 ft | 222 kts | 321° |
| 2026-05-07 18:54 | 40.34873 | -3.43712 | 4014 ft | 222 kts | 322° |
| 2026-05-07 18:55 | 40.36086 | -3.44965 | 4003 ft | 223 kts | 322° |
| 2026-05-07 18:55 | 40.37307 | -3.46213 | 4004 ft | 222 kts | 323° |
| 2026-05-07 18:55 | 40.38533 | -3.47462 | 3887 ft | 223 kts | 323° |
| 2026-05-07 18:55 | 40.39759 | -3.48712 | 3582 ft | 226 kts | 323° |
| 2026-05-07 18:56 | 40.40991 | -3.49968 | 3299 ft | 225 kts | 323° |
| 2026-05-07 18:56 | 40.42192 | -3.51195 | 2977 ft | 211 kts | 323° |
| 2026-05-07 18:56 | 40.43300 | -3.52325 | 2714 ft | 193 kts | 324° |
| 2026-05-07 18:56 | 40.44320 | -3.53363 | 2470 ft | 178 kts | 323° |
| 2026-05-07 18:57 | 40.45247 | -3.54310 | 2234 ft | 165 kts | 323° |
| 2026-05-07 18:57 | 40.46099 | -3.55180 | 2041 ft | 153 kts | 323° |
| 2026-05-07 18:57 | 40.46855 | -3.55943 | 1991 ft | 112 kts | 322° |
| 2026-05-07 18:57 | 40.47301 | -3.56394 | 1991 ft | 54 kts | 322° |
| 2026-05-07 18:58 | 40.47485 | -3.56624 | 1991 ft | 30 kts | 305° |
| 2026-05-07 18:58 | 40.47560 | -3.56826 | 1991 ft | 13 kts | 265° |
| 2026-05-07 18:58 | 40.47494 | -3.56859 | 1991 ft | 13 kts | 142° |
| 2026-05-07 18:58 | 40.47432 | -3.56802 | 1991 ft | 7 kts | 149° |
| 2026-05-07 18:59 | 40.47374 | -3.56790 | 1991 ft | 10 kts | 194° |
| 2026-05-07 18:59 | 40.47365 | -3.56848 | 1990 ft | 9 kts | 315° |
| 2026-05-07 18:59 | 40.47421 | -3.56912 | 1991 ft | 12 kts | 321° |
| 2026-05-07 18:59 | 40.47523 | -3.57017 | 1991 ft | 26 kts | 323° |
| 2026-05-07 19:00 | 40.47703 | -3.57194 | 1991 ft | 36 kts | 323° |
| 2026-05-07 19:00 | 40.47889 | -3.57385 | 1992 ft | 33 kts | 327° |
| 2026-05-07 19:00 | 40.48068 | -3.57566 | 1991 ft | 32 kts | 322° |
| 2026-05-07 19:00 | 40.48244 | -3.57747 | 1992 ft | 33 kts | 322° |
| 2026-05-07 19:01 | 40.48430 | -3.57921 | 1991 ft | 32 kts | 326° |
| 2026-05-07 19:01 | 40.48548 | -3.58026 | 1991 ft | 21 kts | 320° |
| 2026-05-07 19:01 | 40.48599 | -3.58200 | 1991 ft | 22 kts | 272° |
| 2026-05-07 19:01 | 40.48597 | -3.58413 | 1992 ft | 24 kts | 269° |
| 2026-05-07 19:02 | 40.48597 | -3.58641 | 1992 ft | 26 kts | 270° |
| 2026-05-07 19:02 | 40.48597 | -3.58733 | 1991 ft | 0 kts | 272° |
| 2026-05-07 19:02 | 40.48601 | -3.58770 | 1991 ft | 9 kts | 287° |
| 2026-05-07 19:03 | 40.48656 | -3.58821 | 1991 ft | 12 kts | 353° |
| 2026-05-07 19:03 | 40.48708 | -3.58822 | 1989 ft | 0 kts | 0° |
| 2026-05-07 19:03 | 40.48762 | -3.58749 | 1992 ft | 24 kts | 84° |
| 2026-05-07 19:03 | 40.48791 | -3.58644 | 1989 ft | 11 kts | 359° |
| 2026-05-07 19:04 | 40.48880 | -3.58642 | 1989 ft | 15 kts | 1° |
| 2026-05-07 19:04 | 40.48961 | -3.58675 | 1991 ft | 13 kts | 294° |
| 2026-05-07 19:04 | 40.48961 | -3.58717 | 1990 ft | 2 kts | 269° |
| 2026-05-07 19:04 | 40.48961 | -3.58725 | 1990 ft | 0 kts | 270° |